Miners Mill, Pennsylvania
Current Conditions -  °F | °C
As of 12:54 PM on Sunday 25 Jan 2015 (Local Time) from KAVP Reporting Station
Scattered Clouds Scattered Clouds  
Wind Chill: 24°   Ceiling: Unl
Heat Index: 33°   Visibility: 10mi
Dew Point: 10°   Wind: 12mph
Humidity: 38%   Direction: 330°NNW
Pressure: 29.8"   Gusts: NA
Location:  41.2711°N, 75.8417°W
Report Text: KAVP 251754Z AUTO 33010KT 10SM SCT080 01/M12 A2980 RMK AO2 SLP098 60001 T00061122 10017 20000 51021
Loading
Personal Weather Stations






























Interactive Weather Map New forecast layout! Learn more

10-Day Weather Forecast

Advertisements
Track Severe Weather on mobile